Time;durP1;ratioP1;P1;durP2;ratioP2;P2;SDS_P1;SDS_P2;PMS_P1;PMS_P2;Temp;Humidity;BMP_temperature;BMP_pressure;BME280_temperature;BME280_humidity;BME280_pressure;Samples;Min_cycle;Max_cycle;Signal;HPM_P1;HPM_P2
2023/05/06 00:00:59;;;;;;;10.75;6.25;;;;;;;12.27;45.76;98613.09;5009836;28;20034;-73
2023/05/06 00:03:24;;;;;;;10.93;5.85;;;;;;;12.25;46.01;98612.59;5036128;28;20110;-73
2023/05/06 00:05:50;;;;;;;9.65;6.15;;;;;;;12.23;46.09;98609.34;5078380;28;20086;-72
2023/05/06 00:08:16;;;;;;;12.43;6.88;;;;;;;12.22;46.20;98613.22;4993879;28;20030;-73
2023/05/06 00:10:41;;;;;;;11.48;6.72;;;;;;;12.17;46.30;98608.63;5011380;28;20033;-72
2023/05/06 00:13:07;;;;;;;11.23;6.55;;;;;;;12.11;46.31;98603.53;5011115;28;20127;-73
2023/05/06 00:15:33;;;;;;;12.57;7.03;;;;;;;12.05;46.55;98611.88;5010209;28;20034;-73
2023/05/06 00:17:59;;;;;;;9.90;6.85;;;;;;;12.00;46.74;98598.22;5009909;28;20109;-73
2023/05/06 00:20:26;;;;;;;11.55;6.85;;;;;;;11.96;46.55;98594.41;5009785;28;20040;-72
2023/05/06 00:22:51;;;;;;;9.88;6.38;;;;;;;11.91;46.34;98594.50;5009322;28;20055;-73
2023/05/06 00:25:16;;;;;;;12.60;6.63;;;;;;;11.87;47.24;98590.72;5009657;28;20050;-72
2023/05/06 00:27:42;;;;;;;8.65;5.97;;;;;;;11.86;46.80;98594.56;5009395;28;20483;-72
2023/05/06 00:30:08;;;;;;;10.32;6.53;;;;;;;11.84;47.04;98600.38;5009262;28;20030;-72
2023/05/06 00:32:33;;;;;;;10.32;6.35;;;;;;;11.82;46.92;98590.81;5009084;28;20029;-73
2023/05/06 00:34:59;;;;;;;9.00;5.78;;;;;;;11.76;47.08;98588.16;5009893;28;20029;-72
2023/05/06 00:37:24;;;;;;;10.50;5.93;;;;;;;11.74;47.89;98592.31;5009506;28;20460;-73
2023/05/06 00:39:49;;;;;;;8.93;5.60;;;;;;;11.72;47.22;98594.53;5009289;28;20408;-73
2023/05/06 00:42:15;;;;;;;11.00;6.00;;;;;;;11.70;47.98;98599.50;5009555;28;20045;-72
2023/05/06 00:44:40;;;;;;;12.20;6.32;;;;;;;11.68;47.56;98596.25;5009317;28;20034;-71
2023/05/06 00:47:06;;;;;;;8.98;5.57;;;;;;;11.66;48.33;98593.00;5049206;28;20059;-72
2023/05/06 00:49:32;;;;;;;8.45;5.47;;;;;;;11.64;48.04;98592.47;5076667;28;20430;-73
2023/05/06 00:52:00;;;;;;;8.80;5.70;;;;;;;11.63;48.31;98591.66;4991830;28;20113;-73
2023/05/06 00:54:26;;;;;;;8.23;5.40;;;;;;;11.60;48.47;98587.59;5009309;28;20026;-73
2023/05/06 00:56:52;;;;;;;9.18;5.75;;;;;;;11.55;48.56;98597.84;5009110;28;20030;-72
2023/05/06 00:59:18;;;;;;;9.00;5.68;;;;;;;11.52;48.53;98591.03;5008511;28;20120;-73
2023/05/06 01:01:43;;;;;;;8.73;5.40;;;;;;;11.51;48.30;98594.88;5009164;28;20065;-73
2023/05/06 01:04:09;;;;;;;9.02;5.30;;;;;;;11.46;48.55;98595.75;5009050;28;20484;-73
2023/05/06 01:06:52;;;;;;;7.93;5.78;;;;;;;11.45;48.46;98585.09;5016387;28;20026;-72
2023/05/06 01:09:20;;;;;;;8.68;5.50;;;;;;;11.43;48.46;98588.13;5044105;28;20033;-73
2023/05/06 01:11:45;;;;;;;8.38;5.60;;;;;;;11.43;49.01;98579.09;5008938;28;20049;-72
2023/05/06 01:14:52;;;;;;;10.20;5.60;;;;;;;11.39;48.95;98581.63;5009235;28;20034;-73
2023/05/06 01:17:20;;;;;;;8.93;5.65;;;;;;;11.39;48.71;98581.63;5016036;28;20042;-72
2023/05/06 01:19:52;;;;;;;7.82;5.18;;;;;;;11.37;49.54;98594.84;5008904;28;20424;-73
2023/05/06 01:22:18;;;;;;;7.57;5.65;;;;;;;11.36;48.66;98595.13;4991340;28;20026;-73
2023/05/06 01:24:44;;;;;;;8.13;5.68;;;;;;;11.34;49.48;98595.44;5008983;28;20495;-73
2023/05/06 01:27:12;;;;;;;9.63;5.47;;;;;;;11.33;49.34;98596.53;5108844;28;20107;-72
2023/05/06 01:29:40;;;;;;;8.40;5.65;;;;;;;11.32;49.39;98597.66;5008821;28;20030;-72
2023/05/06 01:32:25;;;;;;;7.57;5.45;;;;;;;11.28;49.63;98588.38;5009380;28;20026;-73
2023/05/06 01:35:06;;;;;;;10.07;5.47;;;;;;;11.24;49.75;98590.09;5006515;28;20030;-72
2023/05/06 01:37:54;;;;;;;8.45;5.28;;;;;;;11.23;50.01;98592.00;5008322;28;20451;-73
2023/05/06 01:40:23;;;;;;;8.13;5.32;;;;;;;11.19;49.77;98582.75;5025951;28;20055;-73
2023/05/06 01:42:49;;;;;;;10.03;5.67;;;;;;;11.20;49.98;98586.28;5052035;28;20349;-72
2023/05/06 01:45:16;;;;;;;7.78;5.50;;;;;;;11.16;50.05;98586.09;5008554;28;20026;-73
2023/05/06 01:47:45;;;;;;;9.65;6.18;;;;;;;11.12;50.00;98587.78;5008777;28;20026;-72
2023/05/06 01:50:11;;;;;;;10.43;5.82;;;;;;;11.09;49.90;98582.88;5008521;28;20045;-72
2023/05/06 01:52:36;;;;;;;8.30;5.68;;;;;;;11.06;50.53;98576.06;5008851;28;20029;-73
2023/05/06 01:55:01;;;;;;;9.13;6.05;;;;;;;11.04;50.27;98574.72;5008670;28;20113;-72
2023/05/06 01:57:27;;;;;;;8.32;5.72;;;;;;;11.02;50.28;98572.25;5008719;28;20033;-73
2023/05/06 01:59:52;;;;;;;10.38;6.38;;;;;;;10.99;50.58;98565.44;5032938;28;20031;-72
2023/05/06 02:02:18;;;;;;;8.70;6.20;;;;;;;10.97;51.19;98573.16;5008025;28;20432;-72
2023/05/06 02:04:44;;;;;;;9.55;6.75;;;;;;;10.95;50.80;98561.66;4990759;28;20042;-72
2023/05/06 02:07:11;;;;;;;9.65;6.30;;;;;;;10.93;50.70;98560.34;5008148;28;20034;-72
2023/05/06 02:09:36;;;;;;;9.45;6.47;;;;;;;10.91;50.71;98560.63;5008226;28;20064;-72
2023/05/06 02:12:01;;;;;;;9.25;6.50;;;;;;;10.88;51.21;98563.97;5010306;28;20050;-72
2023/05/06 02:14:27;;;;;;;9.65;6.22;;;;;;;10.84;51.31;98573.88;5011577;28;20364;-73
2023/05/06 02:16:54;;;;;;;8.07;5.72;;;;;;;10.82;51.26;98559.66;5011928;28;20022;-72
2023/05/06 02:19:19;;;;;;;7.88;5.88;;;;;;;10.81;51.59;98566.25;5011175;28;20779;-72
2023/05/06 02:21:45;;;;;;;10.10;6.47;;;;;;;10.79;51.12;98568.50;5011667;28;20033;-76
2023/05/06 02:24:10;;;;;;;7.57;6.05;;;;;;;10.76;51.22;98569.09;5091154;28;20047;-76
2023/05/06 02:26:35;;;;;;;9.52;6.28;;;;;;;10.74;51.78;98565.81;5011493;28;20029;-75
2023/05/06 02:29:01;;;;;;;10.32;6.03;;;;;;;10.74;51.33;98568.56;5011356;28;20026;-76
2023/05/06 02:31:26;;;;;;;9.43;5.90;;;;;;;10.72;52.16;98575.16;5011535;28;20488;-75
2023/05/06 02:33:52;;;;;;;8.88;5.78;;;;;;;10.68;51.59;98565.88;5011488;28;20124;-75
2023/05/06 02:36:17;;;;;;;12.60;6.18;;;;;;;10.66;51.80;98561.78;5011316;28;20541;-75
2023/05/06 02:38:42;;;;;;;7.85;5.90;;;;;;;10.63;51.83;98560.44;5076260;28;20031;-75
2023/05/06 02:41:08;;;;;;;9.10;5.60;;;;;;;10.63;51.85;98565.94;5026704;28;20062;-75
2023/05/06 02:43:33;;;;;;;8.93;5.68;;;;;;;10.61;51.95;98559.94;5011149;28;20483;-76
2023/05/06 02:45:59;;;;;;;7.32;5.57;;;;;;;10.62;52.41;98561.56;5011776;28;20392;-76
2023/05/06 02:48:24;;;;;;;7.78;6.03;;;;;;;10.63;52.25;98567.84;5012528;28;20041;-76
2023/05/06 02:50:50;;;;;;;9.85;6.03;;;;;;;10.62;52.16;98569.78;5011948;28;20029;-76
2023/05/06 02:53:16;;;;;;;9.00;6.07;;;;;;;10.61;52.39;98565.41;5043603;28;20024;-76
2023/05/06 02:55:41;;;;;;;8.80;5.88;;;;;;;10.61;52.37;98565.41;5009940;28;20112;-76
2023/05/06 02:58:06;;;;;;;10.02;6.50;;;;;;;10.60;52.86;98563.78;5010351;28;20058;-77
2023/05/06 03:00:32;;;;;;;7.95;5.72;;;;;;;10.62;52.49;98558.00;4991877;28;20030;-77
2023/05/06 03:02:57;;;;;;;9.90;6.60;;;;;;;10.60;52.52;98558.28;4992288;28;20049;-75
2023/05/06 03:05:23;;;;;;;9.00;6.60;;;;;;;10.61;52.78;98556.34;5009595;28;20183;-76
2023/05/06 03:07:48;;;;;;;9.43;6.45;;;;;;;10.62;52.49;98553.34;5011229;28;20038;-76
2023/05/06 03:10:14;;;;;;;8.98;5.68;;;;;;;10.64;52.56;98556.59;5013983;28;20037;-76
2023/05/06 03:12:39;;;;;;;10.18;5.88;;;;;;;10.65;52.88;98552.75;5027749;28;20071;-76
2023/05/06 03:15:06;;;;;;;10.35;6.78;;;;;;;10.67;53.05;98547.78;5011702;28;20022;-76
2023/05/06 03:17:31;;;;;;;9.18;5.75;;;;;;;10.68;52.77;98549.41;5012038;28;20037;-76
2023/05/06 03:19:56;;;;;;;10.77;5.55;;;;;;;10.68;53.28;98559.56;5011193;28;20109;-76
2023/05/06 03:22:22;;;;;;;9.27;5.60;;;;;;;10.70;52.91;98562.81;5010964;28;20056;-76
2023/05/06 03:24:47;;;;;;;8.65;5.60;;;;;;;10.71;52.91;98556.22;5011193;28;20438;-76
2023/05/06 03:27:12;;;;;;;9.50;5.53;;;;;;;10.71;53.76;98557.06;5101532;28;20024;-77
2023/05/06 03:29:38;;;;;;;6.95;5.53;;;;;;;10.74;53.34;98554.84;5011655;28;20026;-76
2023/05/06 03:32:04;;;;;;;8.40;5.90;;;;;;;10.74;53.33;98552.09;5011744;28;20030;-76
2023/05/06 03:34:29;;;;;;;9.60;5.70;;;;;;;10.76;53.02;98556.16;5010826;28;20022;-77
2023/05/06 03:36:56;;;;;;;7.47;5.70;;;;;;;10.78;53.57;98555.88;5011232;28;20030;-76
2023/05/06 03:39:21;;;;;;;9.55;5.55;;;;;;;10.80;53.88;98554.47;5011837;28;20433;-77
2023/05/06 03:41:47;;;;;;;8.10;5.32;;;;;;;10.81;53.55;98558.84;5011358;28;20109;-77
2023/05/06 03:44:12;;;;;;;9.25;5.72;;;;;;;10.85;53.33;98556.31;5032519;28;20472;-77
2023/05/06 03:46:38;;;;;;;8.10;5.25;;;;;;;10.87;53.05;98568.63;5011433;28;20075;-76
2023/05/06 03:49:04;;;;;;;8.30;5.70;;;;;;;10.86;53.59;98561.53;5011110;28;20052;-77
2023/05/06 03:51:30;;;;;;;7.95;5.72;;;;;;;10.88;53.67;98569.44;5011646;28;20421;-76
2023/05/06 03:53:56;;;;;;;7.35;5.60;;;;;;;10.89;54.08;98562.84;5010824;28;20030;-77
2023/05/06 03:56:21;;;;;;;8.65;5.30;;;;;;;10.89;53.76;98557.34;5011946;28;20036;-76
2023/05/06 03:58:47;;;;;;;8.73;5.40;;;;;;;10.89;53.42;98565.59;4993547;28;20030;-77
2023/05/06 04:01:13;;;;;;;8.48;4.93;;;;;;;10.92;53.95;98569.69;5011062;28;20125;-76
2023/05/06 04:03:38;;;;;;;9.55;5.45;;;;;;;10.92;53.60;98561.44;5010745;28;20053;-76
2023/05/06 04:06:04;;;;;;;8.27;5.50;;;;;;;10.93;53.56;98557.59;5011008;28;20030;-76
2023/05/06 04:08:30;;;;;;;9.40;5.65;;;;;;;10.94;53.64;98546.31;5010613;28;20029;-76
2023/05/06 04:10:55;;;;;;;9.15;5.43;;;;;;;10.94;54.17;98543.56;5010454;28;20527;-76
2023/05/06 04:13:21;;;;;;;7.65;5.20;;;;;;;10.94;54.04;98553.75;5018940;28;20108;-76
2023/05/06 04:15:47;;;;;;;9.18;5.03;;;;;;;10.96;54.28;98551.53;5010752;28;20037;-76
2023/05/06 04:18:17;;;;;;;9.70;5.63;;;;;;;10.96;54.33;98555.06;5009974;28;20079;-76
2023/05/06 04:20:45;;;;;;;8.43;5.40;;;;;;;10.95;54.41;98556.19;5010302;28;20060;-77
2023/05/06 04:23:10;;;;;;;7.65;5.53;;;;;;;10.98;53.95;98561.06;4992755;28;20038;-76
2023/05/06 04:25:36;;;;;;;9.45;5.50;;;;;;;10.98;54.11;98555.59;5009643;28;20443;-76
2023/05/06 04:28:02;;;;;;;8.02;5.35;;;;;;;10.99;54.24;98548.19;5009346;28;20038;-77
2023/05/06 04:30:27;;;;;;;8.75;5.35;;;;;;;11.02;54.54;98553.88;5010286;28;20083;-76
2023/05/06 04:32:52;;;;;;;9.55;5.80;;;;;;;11.04;53.97;98550.81;5009381;28;20388;-76
2023/05/06 04:35:18;;;;;;;10.02;6.03;;;;;;;11.07;54.45;98549.44;5010140;28;20541;-76
2023/05/06 04:37:43;;;;;;;12.98;6.35;;;;;;;11.09;53.94;98548.00;5008369;28;20038;-76
2023/05/06 04:40:11;;;;;;;9.88;5.90;;;;;;;11.08;54.35;98548.31;5010414;28;20072;-76
2023/05/06 04:42:36;;;;;;;9.30;5.78;;;;;;;11.05;54.07;98544.22;5011051;28;20071;-76
2023/05/06 04:45:02;;;;;;;6.82;5.18;;;;;;;11.03;54.69;98540.97;5010816;28;20021;-76
2023/05/06 04:47:28;;;;;;;8.38;5.63;;;;;;;11.01;54.50;98544.00;5010726;28;20097;-76
2023/05/06 04:49:53;;;;;;;8.38;5.60;;;;;;;10.99;54.25;98543.50;5010444;28;20120;-76
2023/05/06 04:52:19;;;;;;;8.98;5.45;;;;;;;10.96;54.63;98544.09;5010444;28;20025;-76
2023/05/06 04:54:44;;;;;;;8.55;5.75;;;;;;;10.95;54.66;98549.88;5014136;28;20411;-76
2023/05/06 04:57:10;;;;;;;8.27;5.65;;;;;;;10.96;54.81;98535.06;4993032;28;20026;-76
2023/05/06 04:59:35;;;;;;;8.85;5.50;;;;;;;10.96;54.77;98524.88;5010087;28;20036;-76
2023/05/06 05:02:00;;;;;;;9.93;5.50;;;;;;;10.97;54.78;98531.19;5010374;28;20090;-76
2023/05/06 05:04:26;;;;;;;8.63;5.55;;;;;;;10.97;54.71;98529.25;5009789;28;20038;-76
2023/05/06 05:06:51;;;;;;;8.98;5.63;;;;;;;10.99;54.73;98529.78;5010304;28;20498;-77
2023/05/06 05:09:17;;;;;;;9.75;6.03;;;;;;;11.03;54.98;98519.00;5010106;28;20426;-76
2023/05/06 05:11:42;;;;;;;9.85;5.97;;;;;;;11.05;55.03;98516.78;5009911;28;20449;-76
2023/05/06 05:14:08;;;;;;;7.60;5.22;;;;;;;11.11;55.82;98517.53;5017042;28;20040;-76
2023/05/06 05:16:33;;;;;;;9.48;5.25;;;;;;;11.13;55.29;98510.63;5010349;28;20418;-76
2023/05/06 05:18:59;;;;;;;10.77;5.63;;;;;;;11.17;55.46;98511.66;5010108;28;20030;-76
2023/05/06 05:21:24;;;;;;;9.27;5.43;;;;;;;11.22;55.92;98505.25;5010419;28;20072;-76
2023/05/06 05:23:49;;;;;;;8.95;5.10;;;;;;;11.26;55.06;98503.53;5009718;28;20022;-76
2023/05/06 05:26:15;;;;;;;9.35;5.60;;;;;;;11.29;55.72;98510.38;5010047;28;20030;-76
2023/05/06 05:28:40;;;;;;;7.47;5.47;;;;;;;11.33;55.75;98511.41;5009967;28;20499;-77
2023/05/06 05:31:06;;;;;;;7.75;5.57;;;;;;;11.36;55.54;98510.81;5044247;28;20028;-77
2023/05/06 05:33:31;;;;;;;8.32;6.00;;;;;;;11.40;55.45;98506.38;5095249;28;20133;-77
2023/05/06 05:35:57;;;;;;;8.77;5.75;;;;;;;11.46;55.09;98512.56;5009906;28;20109;-77
2023/05/06 05:38:22;;;;;;;12.77;5.78;;;;;;;11.48;55.57;98507.59;5009562;28;20033;-77
2023/05/06 05:40:48;;;;;;;6.97;5.45;;;;;;;11.52;55.53;98503.13;5010239;28;20065;-77
2023/05/06 05:43:13;;;;;;;8.13;5.20;;;;;;;11.57;56.02;98503.06;5011652;28;20034;-76
2023/05/06 05:45:39;;;;;;;7.35;5.38;;;;;;;11.62;55.72;98510.38;5012062;28;20029;-76
2023/05/06 05:48:04;;;;;;;8.57;5.93;;;;;;;11.68;55.16;98511.09;5015669;28;20037;-76
2023/05/06 05:50:30;;;;;;;10.13;5.50;;;;;;;11.72;55.45;98501.13;5012754;28;20022;-76
2023/05/06 05:52:55;;;;;;;10.20;5.82;;;;;;;11.76;55.86;98494.75;4982689;28;20034;-76
2023/05/06 05:55:20;;;;;;;10.52;5.57;;;;;;;11.81;55.86;98495.75;5002221;28;20042;-76
2023/05/06 05:57:46;;;;;;;8.70;5.63;;;;;;;11.85;55.91;98494.84;5012862;28;20391;-77
2023/05/06 06:00:12;;;;;;;8.45;5.70;;;;;;;11.90;55.66;98497.50;5012760;28;20030;-75
2023/05/06 06:02:37;;;;;;;7.68;5.47;;;;;;;11.96;55.56;98498.19;5013097;28;20102;-75
2023/05/06 06:05:03;;;;;;;7.90;5.03;;;;;;;12.03;55.46;98498.66;5012640;28;20054;-76
2023/05/06 06:07:28;;;;;;;7.22;5.35;;;;;;;12.09;55.59;98502.09;5012905;28;20108;-76
2023/05/06 06:09:54;;;;;;;9.18;5.30;;;;;;;12.14;55.51;98491.00;5012709;28;20361;-76
2023/05/06 06:12:19;;;;;;;8.85;5.85;;;;;;;12.20;55.75;98489.78;5050123;28;20034;-75
2023/05/06 06:14:46;;;;;;;8.85;5.65;;;;;;;12.27;55.50;98483.88;5012337;28;20034;-75
2023/05/06 06:17:14;;;;;;;8.65;5.53;;;;;;;12.34;55.90;98475.22;5010615;28;20446;-75
2023/05/06 06:19:39;;;;;;;8.23;5.57;;;;;;;12.41;55.51;98480.28;5012580;28;20052;-75
2023/05/06 06:22:05;;;;;;;8.68;5.85;;;;;;;12.45;55.96;98484.06;5012431;28;20030;-75
2023/05/06 06:24:33;;;;;;;9.80;6.40;;;;;;;12.48;55.40;98481.50;5009563;28;20040;-77
2023/05/06 06:27:01;;;;;;;8.07;5.78;;;;;;;12.55;55.30;98467.34;5012493;28;20030;-76
2023/05/06 06:29:27;;;;;;;10.13;5.70;;;;;;;12.63;55.63;98460.28;5012156;28;20116;-76
2023/05/06 06:31:54;;;;;;;8.68;5.55;;;;;;;12.71;55.81;98454.06;5012549;28;20117;-74
2023/05/06 06:34:20;;;;;;;7.65;5.60;;;;;;;12.78;55.75;98453.59;5011359;28;20077;-75
2023/05/06 06:36:45;;;;;;;8.70;5.88;;;;;;;12.86;55.54;98449.28;4993931;28;20037;-75
2023/05/06 06:39:11;;;;;;;7.88;5.53;;;;;;;12.93;55.59;98435.91;5011484;28;20079;-75
2023/05/06 06:41:37;;;;;;;9.20;5.40;;;;;;;12.99;55.56;98439.38;5012123;28;20055;-78
2023/05/06 06:44:02;;;;;;;7.05;5.15;;;;;;;13.05;55.90;98444.44;5012052;28;20034;-76
2023/05/06 06:46:28;;;;;;;9.15;5.57;;;;;;;13.13;55.40;98447.56;5012111;28;20025;-75
2023/05/06 06:48:54;;;;;;;7.50;5.55;;;;;;;13.20;55.78;98451.50;5011832;28;20109;-75
2023/05/06 06:51:19;;;;;;;8.90;5.63;;;;;;;13.27;55.75;98448.28;5011662;28;20392;-75
2023/05/06 06:53:47;;;;;;;7.07;5.35;;;;;;;13.37;55.54;98441.72;5011985;28;20018;-75
2023/05/06 06:56:12;;;;;;;17.08;7.10;;;;;;;13.43;55.62;98443.25;5011613;28;20030;-75
2023/05/06 06:58:38;;;;;;;9.35;5.65;;;;;;;13.50;55.49;98446.34;5010560;28;20082;-75
2023/05/06 07:01:04;;;;;;;11.13;5.55;;;;;;;13.58;55.53;98441.19;5011738;28;20104;-75
2023/05/06 07:03:29;;;;;;;7.85;5.40;;;;;;;13.62;55.34;98434.75;5011915;28;20032;-75
2023/05/06 07:05:55;;;;;;;7.75;5.15;;;;;;;13.66;55.21;98435.72;5012418;28;20132;-75
2023/05/06 07:08:21;;;;;;;8.40;4.90;;;;;;;13.72;55.04;98436.41;5010939;28;20045;-75
2023/05/06 07:10:46;;;;;;;8.05;5.15;;;;;;;13.77;55.34;98433.53;5011128;28;20404;-73
2023/05/06 07:13:12;;;;;;;8.95;4.80;;;;;;;13.84;55.24;98433.88;5012046;28;20103;-75
2023/05/06 07:15:37;;;;;;;7.55;5.35;;;;;;;13.88;55.09;98428.53;5012021;28;20109;-76
2023/05/06 07:18:03;;;;;;;7.60;4.75;;;;;;;13.94;55.17;98434.69;5011794;28;20030;-76
2023/05/06 07:20:28;;;;;;;7.78;5.20;;;;;;;13.97;54.82;98429.38;5010992;28;20022;-76
2023/05/06 07:22:54;;;;;;;6.88;5.07;;;;;;;14.03;55.24;98430.03;5011848;28;20475;-77
2023/05/06 07:25:19;;;;;;;8.57;5.05;;;;;;;14.07;55.05;98430.19;5011770;28;20026;-76
2023/05/06 07:27:45;;;;;;;9.18;5.13;;;;;;;14.11;55.33;98425.66;5012068;28;20033;-77
2023/05/06 07:30:10;;;;;;;8.00;5.32;;;;;;;14.14;54.87;98420.34;5011163;28;20095;-77
2023/05/06 07:32:36;;;;;;;8.45;4.80;;;;;;;14.18;54.99;98422.47;5011630;28;20030;-77
2023/05/06 07:35:02;;;;;;;7.88;4.75;;;;;;;14.21;54.83;98422.63;5011296;28;20364;-77
2023/05/06 07:37:27;;;;;;;8.85;5.40;;;;;;;14.23;54.94;98420.34;5011879;28;20030;-77
2023/05/06 07:39:53;;;;;;;8.40;5.43;;;;;;;14.22;54.71;98418.72;5011538;28;20082;-76
2023/05/06 07:42:18;;;;;;;10.55;6.13;;;;;;;14.26;54.64;98416.16;4993777;28;20113;-76
2023/05/06 07:44:44;;;;;;;14.10;5.90;;;;;;;14.24;54.49;98424.72;5011614;28;20038;-75
2023/05/06 07:47:09;;;;;;;9.50;5.82;;;;;;;14.27;54.72;98424.09;5011765;28;20046;-77
2023/05/06 07:49:34;;;;;;;8.65;5.32;;;;;;;14.28;54.43;98413.84;4992916;28;20033;-77
2023/05/06 07:52:00;;;;;;;11.05;5.60;;;;;;;14.29;54.64;98415.47;5009395;28;20112;-75
2023/05/06 07:54:25;;;;;;;9.07;5.50;;;;;;;14.29;54.41;98418.25;5011003;28;20365;-77
2023/05/06 07:56:51;;;;;;;7.97;5.40;;;;;;;14.31;54.65;98407.69;5011185;28;20036;-77
2023/05/06 07:59:16;;;;;;;7.65;5.03;;;;;;;14.32;54.35;98414.03;5010815;28;20022;-76
2023/05/06 08:01:42;;;;;;;8.45;5.35;;;;;;;14.32;54.62;98408.53;5009626;28;20109;-77
2023/05/06 08:04:07;;;;;;;12.85;5.03;;;;;;;14.31;54.06;98417.94;5009154;28;20095;-76
2023/05/06 08:06:32;;;;;;;7.20;5.38;;;;;;;14.31;54.82;98412.41;5010130;28;20030;-77
2023/05/06 08:08:58;;;;;;;7.30;5.32;;;;;;;14.31;54.43;98417.94;4992044;28;20036;-77
2023/05/06 08:11:24;;;;;;;11.45;5.15;;;;;;;14.31;54.35;98420.69;5010993;28;20037;-77
2023/05/06 08:13:49;;;;;;;6.88;4.95;;;;;;;14.31;54.28;98421.50;5010804;28;20113;-77
2023/05/06 08:16:15;;;;;;;7.22;5.22;;;;;;;14.31;54.16;98415.19;5010838;28;20113;-76
2023/05/06 08:18:40;;;;;;;8.25;5.00;;;;;;;14.32;54.48;98411.28;5010801;28;20137;-77
2023/05/06 08:21:06;;;;;;;10.10;5.40;;;;;;;14.35;54.34;98416.16;5010955;28;20034;-77
2023/05/06 08:23:31;;;;;;;10.38;5.50;;;;;;;14.37;54.47;98409.16;5010553;28;20030;-77
2023/05/06 08:25:58;;;;;;;10.30;5.20;;;;;;;14.42;54.54;98410.97;5010451;28;20460;-77
2023/05/06 08:28:23;;;;;;;10.48;5.38;;;;;;;14.45;54.21;98410.34;5010855;28;20030;-77
2023/05/06 08:30:51;;;;;;;9.07;5.45;;;;;;;14.48;54.24;98403.34;5011136;28;20041;-77
2023/05/06 08:33:17;;;;;;;9.10;5.47;;;;;;;14.52;54.68;98396.84;5010656;28;20026;-76
2023/05/06 08:35:43;;;;;;;10.63;5.82;;;;;;;14.56;54.67;98403.34;5009739;28;20030;-76
2023/05/06 08:38:09;;;;;;;9.25;5.68;;;;;;;14.58;54.78;98405.78;5010435;28;20058;-77
2023/05/06 08:40:41;;;;;;;8.40;5.30;;;;;;;14.61;55.06;98404.31;5007593;28;20026;-75
2023/05/06 08:43:12;;;;;;;7.72;5.75;;;;;;;14.58;54.97;98401.06;5009926;28;20034;-76
2023/05/06 08:45:37;;;;;;;8.68;5.07;;;;;;;14.57;55.13;98410.47;5011207;28;20057;-76
2023/05/06 08:48:03;;;;;;;7.65;4.95;;;;;;;14.57;54.98;98412.44;5009231;28;20102;-77
2023/05/06 08:50:28;;;;;;;9.38;5.40;;;;;;;14.56;55.38;98414.38;4991579;28;20014;-77
2023/05/06 08:52:54;;;;;;;14.13;8.18;;;;;;;14.59;55.31;98422.00;5009733;28;20432;-76
2023/05/06 08:55:21;;;;;;;7.72;5.78;;;;;;;14.63;55.48;98418.59;5010447;28;20468;-73
2023/05/06 08:57:48;;;;;;;8.48;5.53;;;;;;;14.66;55.62;98424.31;5009585;28;20034;-73
2023/05/06 09:00:13;;;;;;;10.45;5.50;;;;;;;14.65;55.11;98428.19;5009251;28;20113;-73
2023/05/06 09:02:40;;;;;;;7.68;5.80;;;;;;;14.62;55.52;98431.59;5016716;28;20859;-71
2023/05/06 09:05:08;;;;;;;8.38;5.43;;;;;;;14.59;55.43;98427.53;5010020;28;20046;-72
2023/05/06 09:07:33;;;;;;;9.80;5.50;;;;;;;14.57;55.51;98440.03;5013178;28;20037;-72
2023/05/06 09:09:59;;;;;;;9.68;6.68;;;;;;;14.58;55.74;98449.94;5008184;28;20022;-75
2023/05/06 09:12:25;;;;;;;9.07;5.28;;;;;;;14.60;55.79;98447.69;5017908;28;20500;-73
2023/05/06 09:14:53;;;;;;;8.48;6.40;;;;;;;14.63;56.16;98448.97;5009498;28;20380;-75
2023/05/06 09:17:25;;;;;;;9.93;5.90;;;;;;;14.64;56.40;98437.63;5008674;28;20030;-75
2023/05/06 09:19:55;;;;;;;9.23;6.18;;;;;;;14.68;56.38;98432.25;5009375;28;20022;-73
2023/05/06 09:22:22;;;;;;;13.13;6.93;;;;;;;14.67;56.44;98442.47;5009350;28;20518;-74
2023/05/06 09:24:55;;;;;;;10.45;7.18;;;;;;;14.66;56.86;98451.09;5012531;28;20029;-73
2023/05/06 09:27:33;;;;;;;13.48;8.13;;;;;;;14.65;56.90;98466.84;5012948;28;20430;-75
2023/05/06 09:30:10;;;;;;;11.85;8.35;;;;;;;14.65;57.04;98460.50;5019836;28;20023;-74
2023/05/06 09:32:36;;;;;;;12.40;8.40;;;;;;;14.64;57.42;98464.38;5029343;28;20868;-74
2023/05/06 09:35:02;;;;;;;9.82;7.50;;;;;;;14.61;57.36;98470.56;5012460;28;20038;-75
2023/05/06 09:37:28;;;;;;;11.02;7.47;;;;;;;14.58;57.90;98464.53;5013236;28;20440;-74
2023/05/06 09:39:55;;;;;;;15.73;11.50;;;;;;;14.56;57.70;98468.78;4993966;28;20108;-74
2023/05/06 09:42:22;;;;;;;18.48;12.98;;;;;;;14.52;58.03;98460.31;5012215;28;20160;-74
2023/05/06 09:44:48;;;;;;;19.38;13.70;;;;;;;14.49;58.15;98460.16;5012469;28;20022;-74
2023/05/06 09:47:13;;;;;;;21.40;15.63;;;;;;;14.43;58.15;98460.31;4994464;28;20094;-74
2023/05/06 09:49:40;;;;;;;15.73;12.77;;;;;;;14.36;58.59;98456.41;4995011;28;20058;-74
2023/05/06 09:52:06;;;;;;;19.50;12.05;;;;;;;14.28;58.44;98446.97;5012031;28;20037;-74
2023/05/06 09:54:34;;;;;;;17.73;14.50;;;;;;;14.22;59.07;98440.00;5011667;28;20067;-74
2023/05/06 09:57:01;;;;;;;17.00;13.32;;;;;;;14.15;59.30;98445.97;5011737;28;20105;-73
2023/05/06 09:59:28;;;;;;;17.00;11.98;;;;;;;14.08;59.38;98431.81;5012729;28;20030;-74
2023/05/06 10:01:54;;;;;;;19.15;14.27;;;;;;;14.05;59.66;98429.72;5011540;28;20426;-74
2023/05/06 10:04:22;;;;;;;16.15;12.45;;;;;;;14.00;60.05;98430.66;5011484;28;20503;-75
2023/05/06 10:06:49;;;;;;;18.33;15.23;;;;;;;13.97;59.87;98426.63;5012100;28;20054;-74
2023/05/06 10:09:16;;;;;;;17.38;13.68;;;;;;;13.94;60.19;98426.44;5012287;28;20030;-74
2023/05/06 10:11:43;;;;;;;10.88;8.60;;;;;;;13.89;60.29;98421.06;5012069;28;20070;-74
2023/05/06 10:14:09;;;;;;;12.02;9.00;;;;;;;13.83;60.67;98426.75;5012421;28;20026;-74
2023/05/06 10:16:36;;;;;;;10.63;7.30;;;;;;;13.79;60.78;98424.91;5011626;28;20515;-74
2023/05/06 10:19:03;;;;;;;10.23;7.13;;;;;;;13.74;60.58;98425.06;4994982;28;20034;-75
2023/05/06 10:21:33;;;;;;;11.98;7.00;;;;;;;13.70;60.52;98425.69;5011665;28;20020;-74
2023/05/06 10:24:08;;;;;;;13.98;8.95;;;;;;;13.67;60.96;98414.50;5012059;28;20034;-74
2023/05/06 10:26:36;;;;;;;14.32;9.45;;;;;;;13.64;61.12;98410.47;5011860;28;20041;-74
2023/05/06 10:29:03;;;;;;;19.40;10.15;;;;;;;13.60;61.15;98406.72;5012193;28;20124;-74
2023/05/06 10:31:29;;;;;;;18.00;11.23;;;;;;;13.59;61.53;98396.81;5011407;28;20036;-74
2023/05/06 10:33:59;;;;;;;17.42;10.32;;;;;;;13.61;61.85;98396.47;5012111;28;20025;-74
2023/05/06 10:36:28;;;;;;;15.85;10.32;;;;;;;13.62;62.02;98392.59;5009894;28;20050;-74
2023/05/06 10:38:56;;;;;;;14.07;10.10;;;;;;;13.61;62.22;98390.97;5012314;28;20117;-74
2023/05/06 10:41:23;;;;;;;15.57;10.68;;;;;;;13.61;62.32;98391.78;5011886;28;20033;-75
2023/05/06 10:43:55;;;;;;;15.25;10.63;;;;;;;13.61;62.35;98385.47;5011831;28;20071;-74
2023/05/06 10:46:27;;;;;;;14.10;9.85;;;;;;;13.60;62.68;98392.94;5010869;28;20030;-74
2023/05/06 10:49:09;;;;;;;15.07;10.07;;;;;;;13.59;62.86;98387.72;5023420;28;20034;-74
2023/05/06 10:51:38;;;;;;;13.13;8.93;;;;;;;13.58;63.10;98380.59;5010839;28;20030;-74
2023/05/06 10:54:07;;;;;;;12.07;8.75;;;;;;;13.59;63.33;98384.97;5010868;28;20540;-76
2023/05/06 10:56:33;;;;;;;12.67;8.80;;;;;;;13.61;63.42;98386.28;5013183;28;20080;-74
2023/05/06 10:59:11;;;;;;;13.20;8.50;;;;;;;13.61;63.20;98390.97;5003683;28;20042;-74
2023/05/06 11:01:42;;;;;;;12.73;9.07;;;;;;;13.60;63.33;98381.91;4993546;28;20497;-74
2023/05/06 11:04:12;;;;;;;17.33;9.50;;;;;;;13.56;63.41;98386.44;5017218;28;20048;-74
2023/05/06 11:06:38;;;;;;;;;;;;;;;13.53;63.23;98389.81;5011174;28;20030;-74
2023/05/06 11:09:05;;;;;;;12.82;9.15;;;;;;;13.50;63.50;98390.44;5017742;28;19925;-74
2023/05/06 11:11:50;;;;;;;13.82;9.40;;;;;;;13.44;63.58;98388.97;5009393;28;20464;-74
2023/05/06 11:14:30;;;;;;;16.73;10.07;;;;;;;13.38;63.76;98385.50;5009452;28;20034;-74
2023/05/06 11:16:58;;;;;;;;;;;;;;;13.34;63.61;98392.78;5021105;28;20062;-74
2023/05/06 11:19:35;;;;;;;17.02;11.90;;;;;;;13.25;63.92;98401.78;5014252;28;20380;-74
2023/05/06 11:22:02;;;;;;;14.18;11.15;;;;;;;13.23;63.98;98403.25;5008313;28;20037;-75
2023/05/06 11:24:39;;;;;;;17.85;12.95;;;;;;;13.19;63.96;98400.28;5009079;28;20028;-74
2023/05/06 11:27:05;;;;;;;17.05;12.90;;;;;;;13.18;64.50;98397.88;5008267;28;20109;-74